Pego, Spain
Current Conditions -  °F | °C
As of 5:30 PM on Saturday 25 Oct 2014 (Local Time) from LEAL Reporting Station
Clear Clear  
Wind Chill: 79°   Ceiling: Unl
Heat Index: 79°   Visibility: 6mi
Dew Point: 46°   Wind: 6mph
Humidity: 32%   Direction: 70°ENE
Pressure: 30.09"   Gusts: NA
Location:  38.84°N, 0.12°W
Report Text: LEAL 251530Z 07005KT CAVOK 26/08 Q1019 NOSIG
Loading
Personal Weather Stations






























Interactive Weather Map
Tropical Storm Tracking
New forecast layout! Learn more

10-Day Weather Forecast

Advertisements
Track Severe Weather on mobile